createdAt,value
2018-07-14T00:00:11.931Z,6.47
2018-07-14T00:02:40.975Z,6.17
2018-07-14T00:05:10.802Z,6.40
2018-07-14T00:07:40.789Z,6.63
2018-07-14T00:10:09.509Z,7.43
2018-07-14T00:12:39.549Z,6.90
2018-07-14T00:15:08.385Z,6.90
2018-07-14T00:17:37.213Z,7.17
2018-07-14T00:20:05.988Z,6.10
2018-07-14T00:22:34.777Z,6.73
2018-07-14T00:25:03.705Z,6.30
2018-07-14T00:27:32.485Z,7.27
2018-07-14T00:30:01.269Z,6.63
2018-07-14T00:32:30.141Z,6.80
2018-07-14T00:34:58.913Z,7.07
2018-07-14T00:37:27.639Z,6.97
2018-07-14T00:39:56.441Z,7.17
2018-07-14T00:42:25.191Z,7.17
2018-07-14T00:44:54.025Z,7.27
2018-07-14T00:47:22.810Z,7.43
2018-07-14T00:49:51.670Z,7.73
2018-07-14T00:52:20.440Z,7.37
2018-07-14T00:54:49.211Z,8.33
2018-07-14T00:57:17.934Z,7.00
2018-07-14T00:59:46.659Z,9.37
2018-07-14T01:02:15.456Z,8.50
2018-07-14T01:04:44.143Z,8.50
2018-07-14T01:07:12.901Z,7.27
2018-07-14T01:09:42.747Z,7.90
2018-07-14T01:12:11.518Z,7.10
2018-07-14T01:14:40.288Z,8.47
2018-07-14T01:17:09.011Z,7.47
2018-07-14T01:19:37.823Z,7.43
2018-07-14T01:22:06.702Z,8.70
2018-07-14T01:24:35.447Z,8.10
2018-07-14T01:27:05.449Z,8.87
2018-07-14T01:29:34.195Z,7.47
2018-07-14T01:32:02.907Z,8.40
2018-07-14T01:34:32.470Z,8.90
2018-07-14T01:37:01.266Z,10.83
2018-07-14T01:39:30.020Z,7.53
2018-07-14T01:41:58.774Z,7.43
2018-07-14T01:44:27.481Z,10.43
2018-07-14T01:46:56.199Z,9.50
2018-07-14T01:49:24.949Z,9.10
2018-07-14T01:51:53.772Z,8.93
2018-07-14T01:54:22.504Z,8.90
2018-07-14T01:56:51.243Z,8.73
2018-07-14T01:59:20.992Z,8.20
2018-07-14T02:01:49.750Z,8.30
2018-07-14T02:04:18.521Z,8.03
2018-07-14T02:06:47.265Z,7.63
2018-07-14T02:09:16.026Z,7.73
2018-07-14T02:11:44.763Z,12.17
2018-07-14T02:14:13.461Z,9.83
2018-07-14T02:16:42.206Z,10.20
2018-07-14T02:19:10.909Z,10.13
2018-07-14T02:21:39.707Z,8.80
2018-07-14T02:24:08.479Z,7.97
2018-07-14T02:26:37.233Z,8.23
2018-07-14T02:29:06.186Z,8.40
2018-07-14T02:31:36.353Z,7.63
2018-07-14T02:34:06.261Z,7.60
2018-07-14T02:36:35.026Z,8.57
2018-07-14T02:39:04.683Z,8.40
2018-07-14T02:41:33.431Z,8.50
2018-07-14T02:44:02.341Z,7.87
2018-07-14T02:46:31.150Z,8.13
2018-07-14T02:48:59.932Z,8.03
2018-07-14T02:51:28.795Z,7.90
2018-07-14T02:53:57.609Z,9.00
2018-07-14T02:56:26.532Z,7.60
2018-07-14T02:58:56.345Z,9.37
2018-07-14T03:01:25.127Z,8.37
2018-07-14T03:03:54.599Z,8.37
2018-07-14T03:06:23.461Z,7.53
2018-07-14T03:08:52.232Z,6.80
2018-07-14T03:11:20.948Z,7.13
2018-07-14T03:13:49.786Z,7.47
2018-07-14T03:16:18.520Z,6.67
2018-07-14T03:18:47.361Z,6.50
2018-07-14T03:21:16.129Z,6.80
2018-07-14T03:23:46.152Z,8.73
2018-07-14T03:26:14.948Z,9.60
2018-07-14T03:28:43.722Z,9.40
2018-07-14T03:31:12.439Z,8.47
2018-07-14T03:33:41.225Z,7.10
2018-07-14T03:36:09.961Z,7.03
2018-07-14T03:38:38.726Z,5.28
2018-07-14T03:41:07.621Z,5.40
2018-07-14T03:43:36.337Z,5.15
2018-07-14T03:46:05.371Z,5.60
2018-07-14T03:48:34.093Z,5.37
2018-07-14T03:51:04.152Z,6.00
2018-07-14T03:53:32.956Z,6.60
2018-07-14T03:56:01.729Z,6.77
2018-07-14T03:58:30.481Z,7.05
2018-07-14T04:00:59.328Z,6.95
2018-07-14T04:03:28.079Z,7.00
2018-07-14T04:05:56.882Z,6.72
2018-07-14T04:08:25.656Z,7.00
2018-07-14T04:10:54.426Z,6.60
2018-07-14T04:13:23.394Z,8.35
2018-07-14T04:15:53.485Z,7.08
2018-07-14T04:18:22.248Z,7.03
2018-07-14T04:20:51.021Z,6.15
2018-07-14T04:23:19.746Z,4.92
2018-07-14T04:25:48.640Z,4.58
2018-07-14T04:28:17.396Z,6.12
2018-07-14T04:30:46.149Z,4.78
2018-07-14T04:33:14.907Z,5.72
2018-07-14T04:35:43.671Z,4.62
2018-07-14T04:38:12.422Z,5.17
2018-07-14T04:40:41.194Z,6.80
2018-07-14T04:43:10.155Z,5.25
2018-07-14T04:45:38.901Z,5.35
2018-07-14T04:48:08.866Z,5.50
2018-07-14T04:50:37.722Z,5.03
2018-07-14T04:53:06.435Z,5.87
2018-07-14T04:55:35.234Z,6.53
2018-07-14T04:58:04.022Z,6.40
2018-07-14T05:00:32.755Z,6.07
2018-07-14T05:03:01.566Z,6.27
2018-07-14T05:05:31.655Z,7.07
2018-07-14T05:08:00.428Z,6.80
2018-07-14T05:10:29.159Z,6.83
2018-07-14T05:12:57.925Z,6.50
2018-07-14T05:15:26.788Z,9.57
2018-07-14T05:17:55.582Z,7.07
2018-07-14T05:20:24.329Z,7.30
2018-07-14T05:22:54.117Z,8.90
2018-07-14T05:25:22.867Z,7.77
2018-07-14T05:27:51.651Z,7.77
2018-07-14T05:30:20.479Z,7.30
2018-07-14T05:32:49.212Z,7.97
2018-07-14T05:35:17.999Z,8.23
2018-07-14T05:37:46.749Z,7.67
2018-07-14T05:40:16.165Z,8.33
2018-07-14T05:42:45.653Z,8.57
2018-07-14T05:45:14.374Z,7.90
2018-07-14T05:47:43.475Z,8.20
2018-07-14T05:50:12.331Z,8.37
2018-07-14T05:52:41.159Z,7.57
2018-07-14T05:55:10.931Z,8.27
2018-07-14T05:57:39.699Z,7.00
2018-07-14T06:00:09.218Z,7.20
2018-07-14T06:02:38.060Z,7.03
2018-07-14T06:05:06.966Z,8.03
2018-07-14T06:07:35.797Z,7.63
2018-07-14T06:10:04.606Z,7.43
2018-07-14T06:12:33.409Z,8.10
2018-07-14T06:15:02.154Z,7.60
2018-07-14T06:17:31.042Z,8.97
2018-07-14T06:19:59.842Z,7.60
2018-07-14T06:22:28.582Z,7.50
2018-07-14T06:24:58.675Z,7.33
2018-07-14T06:27:27.488Z,6.93
2018-07-14T06:29:57.671Z,6.57
2018-07-14T06:32:26.527Z,6.60
2018-07-14T06:34:55.305Z,6.67
2018-07-14T06:37:24.076Z,7.40
2018-07-14T06:39:52.827Z,7.20
2018-07-14T06:42:22.281Z,7.63
2018-07-14T06:44:51.151Z,7.60
2018-07-14T06:47:19.971Z,6.70
2018-07-14T06:49:48.756Z,7.27
2018-07-14T06:52:17.618Z,7.33
2018-07-14T06:54:46.392Z,8.17
2018-07-14T06:57:15.194Z,9.20
2018-07-14T06:59:43.962Z,7.40
2018-07-14T07:02:12.735Z,7.67
2018-07-14T07:04:41.552Z,7.40
2018-07-14T07:07:11.624Z,7.80
2018-07-14T07:09:40.368Z,7.17
2018-07-14T07:12:09.256Z,6.77
2018-07-14T07:14:38.033Z,7.50
2018-07-14T07:17:06.822Z,6.03
2018-07-14T07:19:35.612Z,7.20
2018-07-14T07:22:04.458Z,6.77
2018-07-14T07:24:33.220Z,6.03
2018-07-14T07:27:02.066Z,5.57
2018-07-14T07:31:00.296Z,5.70
2018-07-14T07:33:29.039Z,7.83
2018-07-14T07:35:57.840Z,6.67
2018-07-14T07:38:26.922Z,6.40
2018-07-14T07:40:56.716Z,7.27
2018-07-14T07:43:25.480Z,6.33
2018-07-14T07:45:54.328Z,7.73
2018-07-14T07:48:23.967Z,6.73
2018-07-14T07:50:53.561Z,6.47
2018-07-14T07:53:22.298Z,7.10
2018-07-14T07:55:51.017Z,6.50
2018-07-14T07:58:19.705Z,5.17
2018-07-14T08:00:48.534Z,5.33
2018-07-14T08:03:17.468Z,5.20
2018-07-14T08:05:46.377Z,4.17
2018-07-14T08:08:16.355Z,4.50
2018-07-14T08:10:45.537Z,4.53
2018-07-14T08:13:14.300Z,4.73
2018-07-14T08:15:43.065Z,4.53
2018-07-14T08:18:11.819Z,4.20
2018-07-14T08:20:40.562Z,4.30
2018-07-14T08:23:09.360Z,5.10
2018-07-14T08:25:38.227Z,4.33
2018-07-14T08:28:06.943Z,3.87
2018-07-14T08:30:35.753Z,3.70
2018-07-14T08:33:04.565Z,4.63
2018-07-14T08:35:33.364Z,4.47
2018-07-14T08:38:02.245Z,4.07
2018-07-14T08:40:31.729Z,3.70
2018-07-14T08:43:01.208Z,4.43
2018-07-14T08:45:30.727Z,3.90
2018-07-14T08:47:59.466Z,3.80
2018-07-14T08:50:29.339Z,4.10
2018-07-14T08:52:58.106Z,3.87
2018-07-14T08:55:26.838Z,3.93
2018-07-14T08:57:55.696Z,4.03
2018-07-14T09:00:24.443Z,3.90
2018-07-14T09:02:53.183Z,4.00
2018-07-14T09:05:21.923Z,3.80
2018-07-14T09:07:50.666Z,3.83
2018-07-14T09:10:19.478Z,3.77
2018-07-14T09:12:48.337Z,3.67
2018-07-14T09:15:17.069Z,4.00
2018-07-14T09:17:47.051Z,4.03
2018-07-14T09:20:15.767Z,4.27
2018-07-14T09:22:44.538Z,3.50
2018-07-14T09:25:13.300Z,4.40
2018-07-14T09:27:42.203Z,4.17
2018-07-14T09:30:11.056Z,3.90
2018-07-14T09:32:39.994Z,4.60
2018-07-14T09:35:08.864Z,3.93
2018-07-14T09:37:37.593Z,4.53
2018-07-14T09:40:06.551Z,4.27
2018-07-14T09:42:35.428Z,3.97
2018-07-14T09:45:04.300Z,3.90
2018-07-14T09:47:33.163Z,4.53
2018-07-14T09:50:01.927Z,5.63
2018-07-14T09:52:30.659Z,4.80
2018-07-14T09:54:59.524Z,10.07
2018-07-14T10:00:35.291Z,4.90
2018-07-14T10:03:04.814Z,4.30
2018-07-14T10:05:33.664Z,4.30
2018-07-14T10:08:02.452Z,5.70
2018-07-14T10:10:31.192Z,4.63
2018-07-14T10:13:00.028Z,4.20
2018-07-14T10:15:28.883Z,4.40
2018-07-14T10:17:57.627Z,3.83
2018-07-14T10:20:26.387Z,4.10
2018-07-14T10:22:55.154Z,4.10
2018-07-14T10:25:24.146Z,3.90
2018-07-14T10:27:52.826Z,4.17
2018-07-14T10:30:21.570Z,4.17
2018-07-14T10:32:50.394Z,4.40
2018-07-14T10:35:19.228Z,5.87
2018-07-14T10:37:47.952Z,4.00
2018-07-14T10:40:16.694Z,3.70
2018-07-14T10:42:45.729Z,3.80
2018-07-14T10:45:14.859Z,3.60
2018-07-14T10:47:43.660Z,3.70
2018-07-14T10:50:12.526Z,4.10
2018-07-14T10:52:41.434Z,4.30
2018-07-14T10:55:10.308Z,3.90
2018-07-14T10:57:39.262Z,4.70
2018-07-14T11:00:08.724Z,3.90
2018-07-14T11:02:39.430Z,3.90
2018-07-14T11:05:08.513Z,3.90
2018-07-14T11:07:37.304Z,5.60
2018-07-14T11:10:06.263Z,3.72
2018-07-14T11:12:36.295Z,3.65
2018-07-14T11:15:05.133Z,3.45
2018-07-14T11:17:33.918Z,3.80
2018-07-14T11:20:02.666Z,5.47
2018-07-14T11:22:31.483Z,3.60
2018-07-14T11:25:00.288Z,3.40
2018-07-14T11:27:29.154Z,4.28
2018-07-14T11:29:58.901Z,3.85
2018-07-14T11:32:28.430Z,3.80
2018-07-14T11:34:57.284Z,3.75
2018-07-14T11:37:26.183Z,3.92
2018-07-14T11:39:54.957Z,3.65
2018-07-14T11:42:25.072Z,4.60
2018-07-14T11:44:53.828Z,3.50
2018-07-14T11:47:22.677Z,3.53
2018-07-14T11:49:51.441Z,3.77
2018-07-14T11:52:21.456Z,4.20
2018-07-14T11:54:51.514Z,4.10
2018-07-14T11:57:20.357Z,5.30
2018-07-14T11:59:49.241Z,4.37
2018-07-14T12:02:17.980Z,5.57
2018-07-14T12:04:48.013Z,4.10
2018-07-14T12:07:16.752Z,4.87
2018-07-14T12:09:47.016Z,4.50
2018-07-14T12:12:17.668Z,5.33
2018-07-14T12:14:47.789Z,3.73
2018-07-14T12:17:17.448Z,4.10
2018-07-14T12:19:47.206Z,3.80
2018-07-14T12:22:16.596Z,3.90
2018-07-14T12:24:46.651Z,3.70
2018-07-14T12:27:16.646Z,4.20
2018-07-14T12:29:46.816Z,4.33
2018-07-14T12:32:16.801Z,3.83
2018-07-14T12:34:47.175Z,4.00
2018-07-14T12:37:17.195Z,3.83
2018-07-14T12:39:47.007Z,3.87
2018-07-14T12:42:17.074Z,4.75
2018-07-14T12:44:46.933Z,3.75
2018-07-14T12:47:16.841Z,3.72
2018-07-14T12:49:45.610Z,4.33
2018-07-14T12:52:15.292Z,4.20
2018-07-14T12:54:45.639Z,3.80
2018-07-14T12:57:15.698Z,3.73
2018-07-14T12:59:45.720Z,4.07
2018-07-14T13:02:15.520Z,4.10
2018-07-14T13:04:45.022Z,3.93
2018-07-14T13:07:14.585Z,3.90
2018-07-14T13:09:44.300Z,4.50
2018-07-14T13:12:14.887Z,4.10
2018-07-14T13:14:44.413Z,3.87
2018-07-14T13:17:14.262Z,4.77
2018-07-14T13:19:43.688Z,7.10
2018-07-14T13:22:13.705Z,4.80
2018-07-14T13:24:43.100Z,4.60
2018-07-14T13:27:13.033Z,4.87
2018-07-14T13:29:42.625Z,4.70
2018-07-14T13:32:12.458Z,5.50
2018-07-14T13:34:42.016Z,3.77
2018-07-14T13:37:11.941Z,3.70
2018-07-14T13:39:42.236Z,3.50
2018-07-14T13:42:12.297Z,4.00
2018-07-14T13:44:42.922Z,3.40
2018-07-14T13:47:12.743Z,3.00
2018-07-14T13:49:42.738Z,3.07
2018-07-14T13:52:12.575Z,4.03
2018-07-14T13:54:42.507Z,3.27
2018-07-14T13:57:12.460Z,3.17
2018-07-14T13:59:42.380Z,3.30
2018-07-14T14:02:12.291Z,3.50
2018-07-14T14:04:42.300Z,3.40
2018-07-14T14:07:12.086Z,3.40
2018-07-14T14:09:41.629Z,4.80
2018-07-14T14:12:11.653Z,4.80
2018-07-14T14:14:42.103Z,4.43
2018-07-14T14:17:11.959Z,4.30
2018-07-14T14:19:42.106Z,3.97
2018-07-14T14:22:12.663Z,4.13
2018-07-14T14:24:42.958Z,4.03
2018-07-14T14:27:14.126Z,4.17
2018-07-14T14:29:44.646Z,4.13
2018-07-14T14:32:14.644Z,4.53
2018-07-14T14:34:44.811Z,3.60
2018-07-14T14:37:14.544Z,4.17
2018-07-14T14:39:44.324Z,5.00
2018-07-14T14:42:13.163Z,4.07
2018-07-14T14:44:43.252Z,4.13
2018-07-14T14:47:13.346Z,4.13
2018-07-14T14:49:43.527Z,4.60
2018-07-14T14:52:13.178Z,3.83
2018-07-14T14:54:42.894Z,3.63
2018-07-14T14:57:12.881Z,4.00
2018-07-14T14:59:42.351Z,4.00
2018-07-14T15:02:11.873Z,3.83
2018-07-14T15:04:42.035Z,4.20
2018-07-14T15:07:12.344Z,3.80
2018-07-14T15:09:42.872Z,3.83
2018-07-14T15:12:12.777Z,4.07
2018-07-14T15:14:42.214Z,4.17
2018-07-14T15:17:12.835Z,3.87
2018-07-14T15:19:41.637Z,3.97
2018-07-14T15:22:11.456Z,3.47
2018-07-14T15:24:41.317Z,3.70
2018-07-14T15:30:56.519Z,3.93
2018-07-14T15:33:26.607Z,3.90
2018-07-14T15:35:55.303Z,4.07
2018-07-14T15:38:25.304Z,5.77
2018-07-14T15:40:55.829Z,3.87
2018-07-14T15:43:25.734Z,4.00
2018-07-14T15:45:56.976Z,4.20
2018-07-14T15:48:26.881Z,4.07
2018-07-14T15:50:57.219Z,3.87
2018-07-14T15:53:27.949Z,4.20
2018-07-14T15:55:56.716Z,4.10
2018-07-14T15:58:25.521Z,4.20
2018-07-14T16:00:55.741Z,4.40
2018-07-14T16:03:25.970Z,4.10
2018-07-14T16:05:55.571Z,4.03
2018-07-14T16:08:24.965Z,4.50
2018-07-14T16:10:54.487Z,3.90
2018-07-14T16:13:23.975Z,4.20
2018-07-14T16:15:53.822Z,4.07
2018-07-14T16:18:22.627Z,4.50
2018-07-14T16:20:52.459Z,4.43
2018-07-14T16:23:21.947Z,4.10
2018-07-14T16:25:51.678Z,3.97
2018-07-14T16:28:21.296Z,3.90
2018-07-14T16:30:50.590Z,4.10
2018-07-14T16:33:19.718Z,4.10
2018-07-14T16:35:49.923Z,4.77
2018-07-14T16:38:19.094Z,4.50
2018-07-14T16:40:48.970Z,3.87
2018-07-14T16:43:19.502Z,3.50
2018-07-14T16:45:48.709Z,3.47
2018-07-14T16:48:18.069Z,3.10
2018-07-14T16:50:48.377Z,3.30
2018-07-14T16:53:17.580Z,3.87
2018-07-14T16:55:47.577Z,4.37
2018-07-14T16:58:17.298Z,2.97
2018-07-14T17:00:46.021Z,3.00
2018-07-14T17:03:14.734Z,4.77
2018-07-14T17:05:44.804Z,3.47
2018-07-14T17:08:13.628Z,3.37
2018-07-14T17:10:42.429Z,2.70
2018-07-14T17:13:11.155Z,3.27
2018-07-14T17:15:39.868Z,3.67
2018-07-14T17:18:08.814Z,3.70
2018-07-14T17:20:37.573Z,4.33
2018-07-14T17:23:06.383Z,3.60
2018-07-14T17:25:35.137Z,3.60
2018-07-14T17:28:05.106Z,3.80
2018-07-14T17:30:34.899Z,3.93
2018-07-14T17:33:03.760Z,3.97
2018-07-14T17:35:33.641Z,5.73
2018-07-14T17:38:02.405Z,5.27
2018-07-14T17:40:31.142Z,4.47
2018-07-14T17:43:00.025Z,4.33
2018-07-14T17:45:28.811Z,4.00
2018-07-14T17:47:58.541Z,4.77
2018-07-14T17:50:27.321Z,3.73
2018-07-14T17:52:56.767Z,4.47
2018-07-14T17:55:25.511Z,3.27
2018-07-14T17:57:54.408Z,3.50
2018-07-14T18:00:24.477Z,3.67
2018-07-14T18:02:53.964Z,4.03
2018-07-14T18:05:22.790Z,5.43
2018-07-14T18:07:52.972Z,3.53
2018-07-14T18:10:22.519Z,3.40
2018-07-14T18:12:51.348Z,4.20
2018-07-14T18:15:21.441Z,4.00
2018-07-14T18:17:50.243Z,3.67
2018-07-14T18:20:18.968Z,5.37
2018-07-14T18:22:47.736Z,4.00
2018-07-14T18:25:16.504Z,4.40
2018-07-14T18:27:46.207Z,4.03
2018-07-14T18:30:15.681Z,4.00
2018-07-14T18:32:46.251Z,4.90
2018-07-14T18:35:16.298Z,3.93
2018-07-14T18:37:45.066Z,7.77
2018-07-14T18:40:13.818Z,10.97
2018-07-14T18:42:42.657Z,9.13
2018-07-14T18:45:11.563Z,8.43
2018-07-14T18:47:40.317Z,7.60
2018-07-14T18:50:09.213Z,6.70
2018-07-14T18:55:38.222Z,7.40
2018-07-14T18:58:07.098Z,4.73
2018-07-14T19:00:36.738Z,4.53
2018-07-14T19:03:06.670Z,4.13
2018-07-14T19:05:35.465Z,5.27
2018-07-14T19:08:05.297Z,4.60
2018-07-14T19:10:34.064Z,12.07
2018-07-14T19:13:02.808Z,4.77
2018-07-14T19:15:32.559Z,6.70
2018-07-14T19:18:02.028Z,7.70
2018-07-14T19:20:31.136Z,8.87
2018-07-14T19:23:00.665Z,7.77
2018-07-14T19:25:30.224Z,5.47
2018-07-14T19:28:00.096Z,4.50
2018-07-14T19:30:28.857Z,7.33
2018-07-14T19:32:57.594Z,5.87
2018-07-14T19:35:26.586Z,7.33
2018-07-14T19:37:55.331Z,6.13
2018-07-14T19:40:24.036Z,8.30
2018-07-14T19:42:52.759Z,5.97
2018-07-14T19:45:21.530Z,7.23
2018-07-14T19:47:50.356Z,7.93
2018-07-14T19:50:19.321Z,7.47
2018-07-14T19:52:49.393Z,7.43
2018-07-14T19:55:18.846Z,4.77
2018-07-14T19:57:47.592Z,6.60
2018-07-14T20:00:16.291Z,4.93
2018-07-14T20:02:45.804Z,5.13
2018-07-14T20:05:15.846Z,5.23
2018-07-14T20:07:44.682Z,4.20
2018-07-14T20:10:14.000Z,7.00
2018-07-14T20:12:43.756Z,4.60
2018-07-14T20:15:13.718Z,6.30
2018-07-14T20:17:43.328Z,6.37
2018-07-14T20:20:12.966Z,6.03
2018-07-14T20:22:41.711Z,7.03
2018-07-14T20:25:10.514Z,11.73
2018-07-14T20:27:39.387Z,8.73
2018-07-14T20:30:09.198Z,11.47
2018-07-14T20:32:37.945Z,7.27
2018-07-14T20:35:06.827Z,6.93
2018-07-14T20:37:36.798Z,6.20
2018-07-14T20:40:07.467Z,4.93
2018-07-14T20:42:37.677Z,4.83
2018-07-14T20:45:07.227Z,5.43
2018-07-14T20:47:37.092Z,7.00
2018-07-14T20:50:07.252Z,4.40
2018-07-14T20:52:36.002Z,6.80
2018-07-14T20:55:04.899Z,4.70
2018-07-14T20:57:33.747Z,4.90
2018-07-14T21:00:03.582Z,5.93
2018-07-14T21:02:32.415Z,4.47
2018-07-14T21:05:01.180Z,4.47
2018-07-14T21:07:30.061Z,3.97
2018-07-14T21:09:58.822Z,4.10
2018-07-14T21:12:27.737Z,4.30
2018-07-14T21:14:56.436Z,4.70
2018-07-14T21:17:25.229Z,5.77
2018-07-14T21:19:54.011Z,4.97
2018-07-14T21:22:22.753Z,4.47
2018-07-14T21:24:51.619Z,4.50
2018-07-14T21:27:21.577Z,4.60
2018-07-14T21:29:51.523Z,4.67
2018-07-14T21:32:21.351Z,4.30
2018-07-14T21:34:50.107Z,4.57
2018-07-14T21:37:18.834Z,4.70
2018-07-14T21:39:47.687Z,4.00
2018-07-14T21:42:17.090Z,4.10
2018-07-14T21:44:45.876Z,4.17
2018-07-14T21:47:14.598Z,5.67
2018-07-14T21:49:43.580Z,4.33
2018-07-14T21:52:12.352Z,4.67
2018-07-14T21:54:41.098Z,4.77
2018-07-14T21:57:09.870Z,5.07
2018-07-14T21:59:38.624Z,3.60
2018-07-14T22:02:07.615Z,3.80
2018-07-14T22:04:36.605Z,4.33
2018-07-14T22:07:06.316Z,4.30
2018-07-14T22:09:35.146Z,4.30
2018-07-14T22:12:04.949Z,4.57
2018-07-14T22:14:33.710Z,4.50
2018-07-14T22:17:02.468Z,3.57
2018-07-14T22:19:32.576Z,5.90
2018-07-14T22:22:01.390Z,4.00
2018-07-14T22:24:30.126Z,4.77
2018-07-14T22:27:00.287Z,4.07
2018-07-14T22:29:29.307Z,3.87
2018-07-14T22:31:58.041Z,4.57
2018-07-14T22:34:27.591Z,6.33
2018-07-14T22:36:57.080Z,5.80
2018-07-14T22:39:27.041Z,6.17
2018-07-14T22:41:55.801Z,3.63
2018-07-14T22:44:24.575Z,5.70
2018-07-14T22:46:53.338Z,5.10
2018-07-14T22:49:22.040Z,5.20
2018-07-14T22:51:51.659Z,4.70
2018-07-14T22:54:20.398Z,5.27
2018-07-14T22:56:49.232Z,5.27
2018-07-14T22:59:19.368Z,6.93
2018-07-14T23:01:48.246Z,4.10
2018-07-14T23:04:17.046Z,5.10
2018-07-14T23:06:45.993Z,6.03
2018-07-14T23:09:15.761Z,5.97
2018-07-14T23:11:44.653Z,6.60
2018-07-14T23:14:13.479Z,6.37
2018-07-14T23:16:42.235Z,4.40
2018-07-14T23:19:12.125Z,6.97
2018-07-14T23:21:42.028Z,7.17
2018-07-14T23:24:11.631Z,4.63
2018-07-14T23:26:40.534Z,5.37
2018-07-14T23:29:09.265Z,6.37
2018-07-14T23:31:37.994Z,6.07
2018-07-14T23:34:07.557Z,5.67
2018-07-14T23:36:36.329Z,9.10
2018-07-14T23:39:06.733Z,6.27
2018-07-14T23:41:35.999Z,5.93
2018-07-14T23:44:04.826Z,5.63
2018-07-14T23:46:33.571Z,6.70
2018-07-14T23:49:02.322Z,5.40
2018-07-14T23:51:32.043Z,8.60
2018-07-14T23:54:01.758Z,7.60
2018-07-14T23:56:30.512Z,5.97
2018-07-14T23:58:59.224Z,5.30
